Time;durP1;ratioP1;P1;durP2;ratioP2;P2;SDS_P1;SDS_P2;PMS_P1;PMS_P2;Temp;Humidity;BMP_temperature;BMP_pressure;BME280_temperature;BME280_humidity;BME280_pressure;Samples;Min_cycle;Max_cycle;Signal;HPM_P1;HPM_P2
2021/05/15 00:01:51;;;;;;;1.60;0.90;;;12.20;98.30;;;;;;5067718;28;20185;-54
2021/05/15 00:04:17;;;;;;;2.50;1.10;;;12.20;98.40;;;;;;5068255;28;20208;-53
2021/05/15 00:06:43;;;;;;;1.87;1.20;;;12.10;98.30;;;;;;5068431;28;20181;-54
2021/05/15 00:09:09;;;;;;;1.03;1.00;;;12.20;98.50;;;;;;5068413;28;20199;-54
2021/05/15 00:11:35;;;;;;;1.30;1.20;;;12.20;98.60;;;;;;5069546;28;20852;-54
2021/05/15 00:14:01;;;;;;;1.30;1.13;;;12.30;98.70;;;;;;5067318;28;20439;-53
2021/05/15 00:16:27;;;;;;;0.90;0.90;;;12.20;98.70;;;;;;5072126;28;20654;-54
2021/05/15 00:18:53;;;;;;;1.00;0.80;;;12.10;98.70;;;;;;5066589;28;20284;-53
2021/05/15 00:21:18;;;;;;;1.17;1.07;;;11.90;98.70;;;;;;5064218;28;20181;-54
2021/05/15 00:23:44;;;;;;;2.00;1.20;;;12.00;98.80;;;;;;5059864;28;20292;-53
2021/05/15 00:26:12;;;;;;;1.13;1.03;;;12.10;99.00;;;;;;5065416;28;20178;-53
2021/05/15 00:28:38;;;;;;;1.50;1.00;;;11.80;98.90;;;;;;5067041;28;20191;-53
2021/05/15 00:31:04;;;;;;;1.17;1.08;;;12.10;99.00;;;;;;5068109;28;20673;-53
2021/05/15 00:33:29;;;;;;;1.23;0.93;;;11.70;99.00;;;;;;5071969;28;20232;-53
2021/05/15 00:35:55;;;;;;;1.10;1.00;;;11.80;99.10;;;;;;5068068;28;20183;-54
2021/05/15 00:38:21;;;;;;;1.10;0.93;;;11.80;99.00;;;;;;5072140;28;20287;-53
2021/05/15 00:40:46;;;;;;;2.13;0.90;;;11.90;99.10;;;;;;5068779;28;20202;-53
2021/05/15 00:43:12;;;;;;;1.30;0.90;;;11.70;98.90;;;;;;5066865;28;20206;-53
2021/05/15 00:45:38;;;;;;;0.80;0.80;;;12.00;99.20;;;;;;5067383;28;20595;-53
2021/05/15 00:48:04;;;;;;;0.90;0.90;;;11.70;99.10;;;;;;5067358;28;20469;-54
2021/05/15 00:50:31;;;;;;;1.15;0.90;;;11.70;99.20;;;;;;5074020;28;20439;-54
2021/05/15 00:52:57;;;;;;;2.35;0.80;;;11.60;99.00;;;;;;5066886;28;20198;-53
2021/05/15 00:55:24;;;;;;;1.58;0.90;;;11.90;98.90;;;;;;5067520;28;20182;-53
2021/05/15 00:57:50;;;;;;;1.10;0.80;;;11.50;98.40;;;;;;5068013;28;20201;-53
2021/05/15 01:00:16;;;;;;;1.05;0.95;;;11.70;98.50;;;;;;5068552;28;20258;-53
2021/05/15 01:02:42;;;;;;;1.45;0.80;;;11.90;98.70;;;;;;5068048;28;20189;-53
2021/05/15 01:05:10;;;;;;;1.30;0.90;;;11.70;98.60;;;;;;5068885;28;20213;-53
2021/05/15 01:07:37;;;;;;;1.20;0.88;;;11.60;98.60;;;;;;5067450;28;20892;-54
2021/05/15 01:10:04;;;;;;;1.38;1.00;;;11.60;98.70;;;;;;5067692;28;20642;-54
2021/05/15 01:12:30;;;;;;;0.90;0.80;;;11.50;98.90;;;;;;5067216;28;20199;-53
2021/05/15 01:14:57;;;;;;;1.70;1.20;;;11.60;98.90;;;;;;5067283;28;20209;-53
2021/05/15 01:17:22;;;;;;;1.10;0.90;;;11.40;98.80;;;;;;5066828;28;20958;-54
2021/05/15 01:19:48;;;;;;;0.93;0.83;;;11.60;99.00;;;;;;5066252;28;20178;-53
2021/05/15 01:22:15;;;;;;;1.00;0.90;;;11.70;99.10;;;;;;5062997;28;20181;-54
2021/05/15 01:24:43;;;;;;;3.20;1.00;;;11.30;99.10;;;;;;5074209;28;20220;-53
2021/05/15 01:27:10;;;;;;;1.00;0.90;;;11.50;99.20;;;;;;5069035;28;20185;-53
2021/05/15 01:29:37;;;;;;;0.95;0.80;;;11.40;99.30;;;;;;5071081;28;20177;-53
2021/05/15 01:32:03;;;;;;;1.20;0.77;;;11.20;99.30;;;;;;5068228;28;20182;-53
2021/05/15 01:34:29;;;;;;;1.02;0.70;;;11.30;99.50;;;;;;5070844;28;20197;-54
2021/05/15 01:36:55;;;;;;;1.63;1.00;;;11.00;99.50;;;;;;5067820;28;20198;-53
2021/05/15 01:39:21;;;;;;;1.47;1.00;;;11.10;99.70;;;;;;5068475;28;20662;-53
2021/05/15 01:41:47;;;;;;;1.33;0.70;;;11.30;99.90;;;;;;5071259;28;20460;-53
2021/05/15 01:44:13;;;;;;;2.45;1.00;;;11.20;99.90;;;;;;5070898;28;20201;-54
2021/05/15 01:46:39;;;;;;;1.00;0.90;;;11.30;99.90;;;;;;5070500;28;20271;-54
2021/05/15 01:49:05;;;;;;;1.20;1.00;;;11.20;99.90;;;;;;5070718;28;20313;-54
2021/05/15 01:51:31;;;;;;;1.15;1.05;;;11.10;99.90;;;;;;5070908;28;20199;-53
2021/05/15 01:53:57;;;;;;;0.90;0.80;;;10.90;99.90;;;;;;5070390;28;20205;-53
2021/05/15 01:56:25;;;;;;;1.63;1.00;;;11.10;99.90;;;;;;5071811;28;20192;-54
2021/05/15 01:58:52;;;;;;;1.23;1.13;;;11.10;99.90;;;;;;5070889;28;20542;-53
2021/05/15 02:01:20;;;;;;;2.03;0.90;;;11.10;99.90;;;;;;5070349;28;20185;-53
2021/05/15 02:03:46;;;;;;;1.08;0.90;;;11.10;99.90;;;;;;5070145;28;20575;-53
2021/05/15 02:06:12;;;;;;;2.15;0.95;;;11.10;99.90;;;;;;5069722;28;20209;-53
2021/05/15 02:08:41;;;;;;;1.38;0.90;;;11.00;99.90;;;;;;5069848;28;20185;-53
2021/05/15 02:11:07;;;;;;;1.15;1.05;;;11.20;99.90;;;;;;5069956;28;20181;-54
2021/05/15 02:13:33;;;;;;;2.05;0.90;;;11.00;99.90;;;;;;5069824;28;20212;-54
2021/05/15 02:16:00;;;;;;;1.40;1.20;;;11.10;99.90;;;;;;5070036;28;20181;-53
2021/05/15 02:18:26;;;;;;;1.35;0.80;;;10.80;99.90;;;;;;5069721;28;20366;-54
2021/05/15 02:20:53;;;;;;;1.30;1.20;;;10.90;99.90;;;;;;5067445;28;20178;-54
2021/05/15 02:23:19;;;;;;;3.05;0.90;;;10.90;99.90;;;;;;5069119;28;20240;-53
2021/05/15 02:25:46;;;;;;;1.15;1.05;;;10.90;99.90;;;;;;5069487;28;20173;-53
2021/05/15 02:28:13;;;;;;;1.10;1.00;;;10.50;99.90;;;;;;5069235;28;20190;-54
2021/05/15 02:30:39;;;;;;;2.60;1.48;;;11.10;99.90;;;;;;5069842;28;20188;-54
2021/05/15 02:33:05;;;;;;;1.93;1.00;;;10.80;99.90;;;;;;5074407;28;20204;-54
2021/05/15 02:35:31;;;;;;;1.07;0.97;;;11.00;99.90;;;;;;5069659;28;20188;-53
2021/05/15 02:37:57;;;;;;;1.83;0.95;;;11.10;99.90;;;;;;5065171;28;20242;-53
2021/05/15 02:40:23;;;;;;;1.48;1.15;;;10.90;99.90;;;;;;5069172;28;20204;-53
2021/05/15 02:42:51;;;;;;;0.82;0.82;;;10.90;99.90;;;;;;5069917;28;20203;-53
2021/05/15 02:45:19;;;;;;;1.73;1.10;;;10.80;99.90;;;;;;5070658;28;20242;-54
2021/05/15 02:47:45;;;;;;;1.13;1.02;;;10.70;99.90;;;;;;5069167;28;20188;-54
2021/05/15 02:50:13;;;;;;;1.17;1.00;;;10.90;99.90;;;;;;5071282;28;20177;-54
2021/05/15 02:52:39;;;;;;;1.10;1.00;;;10.80;99.90;;;;;;5070440;28;20184;-54
2021/05/15 02:55:06;;;;;;;1.00;0.90;;;10.80;99.90;;;;;;5069226;28;20198;-52
2021/05/15 02:57:32;;;;;;;1.40;0.85;;;10.90;99.90;;;;;;5069266;28;21163;-53
2021/05/15 02:59:58;;;;;;;1.63;1.00;;;11.10;99.90;;;;;;5070161;28;20268;-53
2021/05/15 03:02:23;;;;;;;1.23;1.13;;;10.90;99.90;;;;;;5068935;28;20199;-53
2021/05/15 03:04:49;;;;;;;1.00;1.00;;;11.00;99.90;;;;;;5068547;28;20633;-53
2021/05/15 03:07:15;;;;;;;1.83;1.17;;;10.70;99.90;;;;;;5069149;28;20176;-53
2021/05/15 03:09:43;;;;;;;1.33;1.23;;;10.60;99.90;;;;;;5068832;28;20269;-53
2021/05/15 03:12:12;;;;;;;1.58;1.23;;;10.60;99.90;;;;;;5069036;28;20177;-53
2021/05/15 03:14:41;;;;;;;2.40;1.13;;;10.50;99.90;;;;;;5070024;28;20204;-53
2021/05/15 03:17:09;;;;;;;1.08;0.98;;;10.40;99.90;;;;;;5069309;28;20717;-54
2021/05/15 03:19:35;;;;;;;1.10;1.00;;;10.20;99.90;;;;;;5067953;28;20207;-54
2021/05/15 03:22:00;;;;;;;1.90;1.20;;;10.50;99.90;;;;;;5067889;28;20626;-53
2021/05/15 03:24:26;;;;;;;2.13;1.27;;;10.50;99.90;;;;;;5065592;28;20452;-53
2021/05/15 03:26:51;;;;;;;1.20;1.10;;;10.50;99.90;;;;;;5069740;28;20215;-54
2021/05/15 03:29:17;;;;;;;3.80;1.20;;;10.20;99.90;;;;;;5068425;28;20185;-53
2021/05/15 03:31:43;;;;;;;1.10;1.00;;;10.30;99.90;;;;;;5068521;28;20212;-53
2021/05/15 03:34:08;;;;;;;1.27;1.17;;;10.40;99.90;;;;;;5067840;28;20209;-54
2021/05/15 03:36:35;;;;;;;1.53;1.43;;;10.20;99.90;;;;;;5066160;28;20181;-53
2021/05/15 03:39:05;;;;;;;1.27;0.95;;;10.30;99.90;;;;;;5059676;28;20326;-54
2021/05/15 03:41:34;;;;;;;1.77;1.55;;;10.50;99.90;;;;;;5064129;28;20268;-53
2021/05/15 03:43:59;;;;;;;2.03;1.20;;;10.20;99.90;;;;;;5062647;28;20193;-54
2021/05/15 03:46:25;;;;;;;1.40;1.30;;;10.40;99.90;;;;;;5067606;28;20650;-54
2021/05/15 03:48:51;;;;;;;1.47;1.37;;;10.20;99.90;;;;;;5066924;28;20439;-53
2021/05/15 03:51:16;;;;;;;1.30;1.20;;;10.00;99.90;;;;;;5067911;28;20206;-53
2021/05/15 03:53:42;;;;;;;2.70;1.33;;;10.00;99.90;;;;;;5067931;28;20205;-54
2021/05/15 03:56:08;;;;;;;1.40;1.30;;;10.10;99.90;;;;;;5067889;28;20558;-54
2021/05/15 03:58:34;;;;;;;3.00;2.60;;;10.10;99.90;;;;;;5068110;28;20200;-54
2021/05/15 04:00:59;;;;;;;1.80;1.30;;;10.20;99.90;;;;;;5068060;28;20692;-53
2021/05/15 04:03:25;;;;;;;1.90;1.50;;;10.10;99.90;;;;;;5067702;28;20419;-54
2021/05/15 04:05:51;;;;;;;2.17;1.50;;;10.00;99.90;;;;;;5067243;28;20205;-54
2021/05/15 04:08:17;;;;;;;2.10;1.70;;;10.00;99.90;;;;;;5067647;28;20409;-54
2021/05/15 04:10:43;;;;;;;3.97;1.77;;;9.90;99.90;;;;;;5067972;28;20177;-54
2021/05/15 04:13:19;;;;;;;2.60;2.40;;;10.10;99.90;;;;;;5067883;28;20204;-53
2021/05/15 04:15:58;;;;;;;1.52;1.42;;;10.00;99.90;;;;;;5070265;28;20230;-54
2021/05/15 04:18:28;;;;;;;1.55;1.38;;;10.00;99.90;;;;;;5061877;28;20200;-53
2021/05/15 04:20:54;;;;;;;1.63;1.35;;;10.00;99.90;;;;;;5067900;28;20226;-54
2021/05/15 04:23:20;;;;;;;3.67;1.30;;;9.90;99.90;;;;;;5067237;28;20208;-54
2021/05/15 04:25:45;;;;;;;2.33;1.30;;;9.90;99.90;;;;;;5067753;28;20192;-54
2021/05/15 04:28:11;;;;;;;1.70;1.30;;;10.20;99.90;;;;;;5067104;28;20539;-54
2021/05/15 04:30:37;;;;;;;1.70;1.60;;;10.10;99.90;;;;;;5067848;28;20185;-54
2021/05/15 04:33:03;;;;;;;4.00;1.67;;;10.20;99.90;;;;;;5067709;28;20197;-54
2021/05/15 04:35:32;;;;;;;2.73;1.23;;;10.20;99.90;;;;;;5067291;28;20192;-54
2021/05/15 04:38:04;;;;;;;1.50;1.40;;;10.20;99.90;;;;;;5068300;28;20197;-53
2021/05/15 04:40:30;;;;;;;1.63;1.30;;;10.40;99.90;;;;;;5067533;28;20272;-53
2021/05/15 04:42:56;;;;;;;4.03;1.57;;;10.40;99.90;;;;;;5067615;28;20299;-53
2021/05/15 04:45:23;;;;;;;1.95;1.10;;;10.60;99.90;;;;;;5067619;28;20620;-54
2021/05/15 04:47:49;;;;;;;1.20;1.10;;;10.50;99.90;;;;;;5067698;28;20188;-54
2021/05/15 04:50:15;;;;;;;1.10;1.00;;;10.90;99.90;;;;;;5068001;28;20559;-54
2021/05/15 04:52:41;;;;;;;1.45;1.35;;;10.80;99.90;;;;;;5067506;28;20431;-53
2021/05/15 04:55:07;;;;;;;3.17;1.10;;;11.00;99.90;;;;;;5067017;28;20224;-54
2021/05/15 04:57:33;;;;;;;1.20;1.10;;;10.80;99.90;;;;;;5063575;28;20197;-54
2021/05/15 04:59:59;;;;;;;1.52;1.35;;;11.10;99.90;;;;;;5064055;28;20766;-51
2021/05/15 05:02:25;;;;;;;1.50;1.37;;;11.20;99.90;;;;;;5070057;28;20605;-51
2021/05/15 05:04:50;;;;;;;1.83;1.03;;;11.10;99.90;;;;;;5071106;28;20199;-52
2021/05/15 05:07:19;;;;;;;1.00;0.90;;;11.10;99.90;;;;;;5072330;28;20173;-51
2021/05/15 05:09:45;;;;;;;1.95;1.23;;;11.20;99.90;;;;;;5062415;28;20181;-52
2021/05/15 05:12:10;;;;;;;1.70;1.10;;;11.50;99.90;;;;;;5063571;28;20589;-52
2021/05/15 05:14:38;;;;;;;1.43;1.33;;;11.50;99.90;;;;;;5062118;28;20656;-53
2021/05/15 05:17:04;;;;;;;1.00;0.90;;;11.80;99.90;;;;;;5063771;28;20544;-53
2021/05/15 05:19:30;;;;;;;1.30;1.10;;;11.90;99.90;;;;;;5063327;28;20215;-52
2021/05/15 05:21:56;;;;;;;1.30;1.20;;;11.70;99.90;;;;;;5063379;28;20178;-53
2021/05/15 05:24:22;;;;;;;1.10;1.00;;;12.00;99.80;;;;;;5057013;28;20830;-53
2021/05/15 05:26:48;;;;;;;1.00;0.90;;;12.10;99.50;;;;;;5064432;28;20524;-51
2021/05/15 05:29:14;;;;;;;1.27;0.90;;;11.80;99.00;;;;;;5064006;28;20659;-52
2021/05/15 05:31:43;;;;;;;1.30;0.90;;;12.40;99.00;;;;;;5055654;28;20209;-51
2021/05/15 05:34:09;;;;;;;1.58;1.00;;;12.50;98.70;;;;;;5064949;28;20676;-51
2021/05/15 05:36:36;;;;;;;1.60;1.33;;;12.80;98.00;;;;;;5063286;28;20186;-51
2021/05/15 05:39:08;;;;;;;2.75;0.90;;;12.90;97.80;;;;;;5048647;28;20198;-55
2021/05/15 05:41:33;;;;;;;1.20;1.10;;;13.10;97.40;;;;;;5066676;28;20742;-51
2021/05/15 05:43:59;;;;;;;0.90;0.90;;;13.20;97.10;;;;;;5059235;28;20199;-50
2021/05/15 05:46:25;;;;;;;1.20;1.10;;;13.20;96.80;;;;;;5063172;28;20241;-50
2021/05/15 05:48:50;;;;;;;1.23;1.13;;;13.20;96.90;;;;;;5063087;28;20183;-52
2021/05/15 05:51:17;;;;;;;3.17;0.90;;;13.30;96.50;;;;;;5067054;28;20502;-52
2021/05/15 05:53:42;;;;;;;1.48;1.10;;;13.40;96.70;;;;;;5059704;28;20462;-53
2021/05/15 05:56:08;;;;;;;1.00;0.90;;;13.50;96.20;;;;;;5064983;28;20219;-54
2021/05/15 05:58:33;;;;;;;1.23;0.97;;;13.70;96.10;;;;;;5064622;28;20264;-55
2021/05/15 06:01:00;;;;;;;1.73;0.97;;;13.60;95.90;;;;;;5064236;28;20283;-56
2021/05/15 06:03:26;;;;;;;1.30;1.10;;;13.70;95.30;;;;;;5059927;28;20200;-54
2021/05/15 06:05:52;;;;;;;1.58;1.05;;;13.90;94.80;;;;;;5063464;28;20181;-52
2021/05/15 06:08:18;;;;;;;1.30;0.90;;;14.00;94.90;;;;;;5064461;28;20181;-53
2021/05/15 06:10:43;;;;;;;1.40;0.88;;;14.30;94.40;;;;;;5074301;28;20528;-53
2021/05/15 06:13:10;;;;;;;2.00;0.80;;;14.00;94.40;;;;;;5066137;28;20207;-51
2021/05/15 06:15:37;;;;;;;1.15;1.00;;;14.00;94.20;;;;;;5063888;28;20919;-52
2021/05/15 06:18:03;;;;;;;0.70;0.68;;;13.90;94.10;;;;;;5064228;28;20254;-54
2021/05/15 06:20:29;;;;;;;0.90;0.80;;;13.90;94.30;;;;;;5062255;28;20191;-53
2021/05/15 06:22:56;;;;;;;2.30;0.70;;;14.00;94.40;;;;;;5059851;28;20176;-54
2021/05/15 06:25:24;;;;;;;3.95;0.95;;;13.70;94.50;;;;;;5064505;28;20843;-53
2021/05/15 06:27:50;;;;;;;1.05;0.80;;;13.70;94.60;;;;;;5059778;28;20196;-53
2021/05/15 06:30:16;;;;;;;0.80;0.80;;;13.60;94.90;;;;;;5058200;28;20184;-54
2021/05/15 06:32:42;;;;;;;1.63;1.00;;;13.70;94.80;;;;;;5068073;28;20449;-54
2021/05/15 06:35:08;;;;;;;1.20;1.10;;;14.10;94.70;;;;;;5065670;28;20955;-54
2021/05/15 06:37:34;;;;;;;1.25;0.85;;;14.40;94.30;;;;;;5069486;28;20230;-53
2021/05/15 06:40:00;;;;;;;0.73;0.70;;;14.70;93.80;;;;;;5067327;28;20315;-52
2021/05/15 06:42:26;;;;;;;0.70;0.70;;;15.10;92.80;;;;;;5066648;28;20185;-55
2021/05/15 06:44:52;;;;;;;1.00;0.70;;;15.40;92.20;;;;;;5063578;28;20907;-56
2021/05/15 06:47:17;;;;;;;1.90;1.10;;;15.90;91.40;;;;;;5062496;28;20199;-55
2021/05/15 06:49:44;;;;;;;1.63;0.70;;;16.10;90.90;;;;;;5063813;28;20176;-56
2021/05/15 06:52:10;;;;;;;0.98;0.90;;;16.20;90.10;;;;;;5064189;28;20185;-51
2021/05/15 06:54:36;;;;;;;1.15;0.90;;;16.10;89.40;;;;;;5060277;28;20246;-51
2021/05/15 06:57:02;;;;;;;0.80;0.70;;;16.40;89.30;;;;;;5059614;28;20177;-51
2021/05/15 06:59:28;;;;;;;0.85;0.70;;;17.10;86.20;;;;;;5059954;28;20217;-54
2021/05/15 07:01:53;;;;;;;1.00;0.90;;;17.60;85.20;;;;;;5063713;28;20235;-55
2021/05/15 07:04:19;;;;;;;0.83;0.80;;;18.10;81.00;;;;;;5063737;28;20551;-54
2021/05/15 07:06:45;;;;;;;1.10;0.70;;;18.20;80.10;;;;;;5062113;28;20185;-54
2021/05/15 07:09:10;;;;;;;1.13;1.03;;;18.20;79.40;;;;;;5059261;28;20220;-54
2021/05/15 07:11:36;;;;;;;2.00;0.70;;;18.00;80.40;;;;;;5064038;28;20854;-54
2021/05/15 07:14:02;;;;;;;1.37;0.80;;;17.80;80.60;;;;;;5056698;28;20205;-54
2021/05/15 07:16:28;;;;;;;1.55;0.90;;;18.60;78.60;;;;;;5059435;28;21047;-54
2021/05/15 07:18:54;;;;;;;0.80;0.80;;;19.50;75.30;;;;;;5061647;28;20201;-54
2021/05/15 07:21:19;;;;;;;1.80;0.93;;;19.80;72.50;;;;;;5062068;28;20177;-52
2021/05/15 07:23:45;;;;;;;1.00;0.90;;;19.60;73.10;;;;;;5061264;28;20200;-53
2021/05/15 07:26:11;;;;;;;1.07;0.97;;;19.30;73.50;;;;;;5060815;28;20768;-53
2021/05/15 07:28:37;;;;;;;1.40;1.30;;;18.70;74.00;;;;;;5062407;28;20698;-54
2021/05/15 07:31:03;;;;;;;2.08;1.10;;;18.50;75.90;;;;;;5058868;28;20543;-53
2021/05/15 07:33:29;;;;;;;1.60;1.20;;;18.30;76.60;;;;;;5064213;28;20303;-53
2021/05/15 07:35:55;;;;;;;1.17;0.93;;;18.20;76.70;;;;;;5062197;28;20450;-54
2021/05/15 07:38:22;;;;;;;1.50;1.20;;;17.80;77.00;;;;;;5063869;28;20197;-53
2021/05/15 07:40:48;;;;;;;0.80;0.75;;;17.60;78.40;;;;;;5062059;28;20273;-54
2021/05/15 07:43:16;;;;;;;1.00;0.90;;;17.30;78.70;;;;;;5061779;28;20219;-55
2021/05/15 07:45:42;;;;;;;1.83;1.30;;;17.40;79.50;;;;;;5066537;28;20185;-54
2021/05/15 07:48:07;;;;;;;1.03;0.93;;;17.30;80.30;;;;;;5062193;28;20230;-53
2021/05/15 07:50:33;;;;;;;1.33;0.70;;;17.50;80.00;;;;;;5053869;28;20192;-56
2021/05/15 07:52:59;;;;;;;1.23;0.90;;;17.90;78.10;;;;;;5066605;28;20177;-54
2021/05/15 07:55:24;;;;;;;1.70;1.13;;;18.00;76.80;;;;;;5065842;28;20281;-54
2021/05/15 07:57:50;;;;;;;2.50;0.90;;;18.50;75.80;;;;;;5060614;28;20204;-54
2021/05/15 08:00:16;;;;;;;1.15;1.05;;;18.90;74.70;;;;;;5062795;28;20283;-54
2021/05/15 08:02:42;;;;;;;0.95;0.88;;;18.70;72.60;;;;;;5062903;28;20209;-51
2021/05/15 08:05:12;;;;;;;1.60;1.10;;;18.30;74.70;;;;;;5058518;28;20632;-51
2021/05/15 08:07:38;;;;;;;1.35;0.88;;;17.70;77.10;;;;;;5059549;28;20193;-51
2021/05/15 08:10:08;;;;;;;1.65;0.85;;;17.60;77.00;;;;;;5059332;28;20688;-52
2021/05/15 08:12:34;;;;;;;1.00;0.85;;;17.10;77.20;;;;;;5072089;28;20288;-52
2021/05/15 08:15:00;;;;;;;1.10;0.80;;;17.00;79.10;;;;;;5062577;28;20208;-54
2021/05/15 08:17:27;;;;;;;0.80;0.70;;;16.90;79.80;;;;;;5058530;28;20181;-53
2021/05/15 08:19:53;;;;;;;2.75;1.00;;;16.70;79.20;;;;;;5058770;28;20180;-55
2021/05/15 08:22:18;;;;;;;2.67;1.17;;;16.90;78.70;;;;;;5059705;28;20194;-52
2021/05/15 08:24:44;;;;;;;0.73;0.70;;;16.90;78.30;;;;;;5057451;28;20505;-52
2021/05/15 08:27:10;;;;;;;2.63;0.90;;;16.70;78.50;;;;;;5058756;28;20181;-52
2021/05/15 08:29:36;;;;;;;1.20;1.10;;;16.60;79.60;;;;;;5061500;28;20226;-51
2021/05/15 08:32:01;;;;;;;2.23;0.90;;;16.60;79.90;;;;;;5056755;28;20813;-53
2021/05/15 08:34:27;;;;;;;0.83;0.83;;;16.30;80.20;;;;;;5063542;28;20204;-52
2021/05/15 08:36:53;;;;;;;1.00;0.90;;;16.00;81.40;;;;;;5061936;28;20276;-52
2021/05/15 08:39:19;;;;;;;1.10;0.90;;;16.00;81.60;;;;;;5062541;28;20204;-51
2021/05/15 08:41:45;;;;;;;1.67;1.00;;;16.10;82.60;;;;;;5058487;28;20427;-52
2021/05/15 08:44:13;;;;;;;1.13;0.90;;;16.30;82.50;;;;;;5067385;28;20200;-53
2021/05/15 08:46:42;;;;;;;2.13;0.90;;;16.30;82.20;;;;;;5062954;28;20679;-51
2021/05/15 08:49:09;;;;;;;1.92;0.70;;;16.50;81.50;;;;;;5062077;28;20628;-51
2021/05/15 08:51:35;;;;;;;1.05;0.80;;;16.60;81.10;;;;;;5064084;28;20230;-50
2021/05/15 08:54:01;;;;;;;1.08;0.90;;;16.70;80.60;;;;;;5066403;28;20288;-51
2021/05/15 08:56:28;;;;;;;2.10;1.00;;;17.00;80.90;;;;;;5066864;28;20271;-51
2021/05/15 08:58:55;;;;;;;1.73;0.93;;;17.00;80.10;;;;;;5061522;28;20481;-51
2021/05/15 09:01:20;;;;;;;1.05;0.95;;;16.80;79.40;;;;;;5059056;28;20182;-52
2021/05/15 09:03:46;;;;;;;1.67;1.53;;;16.40;79.80;;;;;;5060693;28;20677;-53
2021/05/15 09:06:12;;;;;;;1.53;0.83;;;16.80;80.70;;;;;;5059680;28;20173;-53
2021/05/15 09:08:38;;;;;;;1.10;0.98;;;16.90;80.90;;;;;;5059839;28;20197;-51
2021/05/15 09:11:05;;;;;;;1.20;1.10;;;17.10;79.10;;;;;;5056703;28;20276;-50
2021/05/15 09:13:31;;;;;;;3.50;1.10;;;17.20;78.40;;;;;;5067348;28;20205;-53
2021/05/15 09:16:00;;;;;;;1.30;1.00;;;17.50;77.50;;;;;;5057138;28;20250;-52
2021/05/15 09:18:28;;;;;;;1.15;1.05;;;17.10;77.00;;;;;;5060460;28;20463;-52
2021/05/15 09:20:56;;;;;;;2.00;1.23;;;16.90;77.80;;;;;;5053125;28;20235;-53
2021/05/15 09:23:28;;;;;;;4.00;1.05;;;17.00;78.60;;;;;;5061766;28;20200;-54
2021/05/15 09:26:06;;;;;;;1.42;1.10;;;17.20;77.50;;;;;;5060780;28;20553;-54
2021/05/15 09:28:50;;;;;;;1.80;1.15;;;17.50;77.20;;;;;;5057585;28;20205;-54
2021/05/15 09:31:27;;;;;;;0.95;0.90;;;18.00;76.60;;;;;;5062841;28;20217;-52
2021/05/15 09:33:54;;;;;;;1.13;0.90;;;18.10;75.70;;;;;;5057010;28;20647;-54
2021/05/15 09:36:25;;;;;;;1.00;0.90;;;18.50;75.00;;;;;;5057683;28;20181;-54
2021/05/15 09:39:08;;;;;;;2.22;1.30;;;19.00;73.60;;;;;;5057247;28;20243;-50
2021/05/15 09:41:35;;;;;;;1.90;1.52;;;19.60;71.00;;;;;;5062430;28;20418;-50
2021/05/15 09:44:01;;;;;;;0.70;0.70;;;20.40;70.30;;;;;;5065789;28;20250;-48
2021/05/15 09:46:28;;;;;;;2.65;2.45;;;20.80;68.60;;;;;;5058321;28;20189;-48
2021/05/15 09:48:55;;;;;;;1.63;1.13;;;21.40;67.20;;;;;;5062504;28;20192;-49
2021/05/15 09:51:21;;;;;;;2.22;1.10;;;21.80;63.70;;;;;;5064843;28;20529;-49
2021/05/15 09:53:47;;;;;;;2.50;1.30;;;21.70;61.80;;;;;;5064267;28;20564;-47
2021/05/15 09:56:13;;;;;;;1.90;1.10;;;20.80;63.30;;;;;;5067293;28;20367;-48
2021/05/15 09:58:42;;;;;;;1.33;1.23;;;20.70;63.70;;;;;;5064662;28;20470;-48
2021/05/15 10:01:11;;;;;;;1.50;1.17;;;20.60;65.00;;;;;;5068364;28;20188;-49
2021/05/15 10:03:37;;;;;;;1.10;1.00;;;20.20;65.30;;;;;;5064392;28;20200;-49
2021/05/15 10:06:09;;;;;;;1.65;1.42;;;19.70;66.10;;;;;;5063427;28;20547;-50
2021/05/15 10:08:39;;;;;;;1.40;1.25;;;19.80;66.60;;;;;;5061414;28;20650;-49
2021/05/15 10:11:05;;;;;;;1.23;1.13;;;19.30;67.30;;;;;;5063963;28;20673;-49
2021/05/15 10:13:36;;;;;;;1.63;1.10;;;19.30;67.30;;;;;;5062212;28;20261;-49
2021/05/15 10:16:02;;;;;;;1.17;0.82;;;19.00;67.90;;;;;;5063147;28;20693;-48
2021/05/15 10:18:29;;;;;;;2.17;1.25;;;18.90;69.00;;;;;;5066431;28;20683;-50
2021/05/15 10:20:55;;;;;;;1.30;1.20;;;19.20;69.20;;;;;;5069910;28;20585;-49
2021/05/15 10:23:23;;;;;;;0.93;0.93;;;19.50;67.80;;;;;;5070809;28;20213;-50
2021/05/15 10:25:58;;;;;;;1.65;1.30;;;19.40;66.40;;;;;;5069257;28;20177;-49
2021/05/15 10:28:26;;;;;;;1.23;1.02;;;19.00;66.80;;;;;;5070093;28;20176;-49
2021/05/15 10:31:06;;;;;;;3.00;1.10;;;18.60;69.80;;;;;;5068955;28;20833;-50
2021/05/15 10:33:32;;;;;;;1.88;1.38;;;18.30;69.90;;;;;;5064015;28;20373;-50
2021/05/15 10:35:58;;;;;;;1.52;1.10;;;18.30;72.40;;;;;;5065753;28;20181;-50
2021/05/15 10:38:35;;;;;;;1.93;1.33;;;18.30;69.60;;;;;;5067319;28;20694;-50
2021/05/15 10:41:08;;;;;;;1.55;0.90;;;18.70;69.10;;;;;;5068024;28;20173;-50
2021/05/15 10:43:36;;;;;;;2.40;1.10;;;18.90;68.40;;;;;;5064650;28;20692;-51
2021/05/15 10:46:22;;;;;;;1.13;1.02;;;19.10;66.20;;;;;;5074260;28;20188;-49
2021/05/15 10:49:01;;;;;;;1.20;1.10;;;19.50;66.20;;;;;;5064377;28;20176;-50
2021/05/15 10:51:39;;;;;;;1.58;1.13;;;20.00;64.40;;;;;;5071078;28;20219;-50
2021/05/15 10:54:06;;;;;;;2.35;1.20;;;20.00;62.60;;;;;;5060515;28;20201;-49
2021/05/15 10:56:33;;;;;;;1.20;1.10;;;19.90;63.40;;;;;;5068816;28;20214;-50
2021/05/15 10:59:18;;;;;;;1.42;0.93;;;19.50;64.60;;;;;;5068406;28;20211;-50
2021/05/15 11:01:55;;;;;;;2.47;1.20;;;19.10;65.90;;;;;;5062072;28;20231;-50
2021/05/15 11:04:32;;;;;;;1.30;1.20;;;18.70;65.80;;;;;;5063208;28;20212;-50
2021/05/15 11:07:02;;;;;;;1.70;1.13;;;18.50;65.70;;;;;;5061336;28;20169;-50
2021/05/15 11:09:29;;;;;;;3.28;1.13;;;18.10;64.20;;;;;;5064930;28;20647;-49
2021/05/15 11:12:16;;;;;;;1.80;1.02;;;18.30;65.60;;;;;;5065528;28;20177;-50
2021/05/15 11:14:46;;;;;;;1.55;1.40;;;18.20;65.70;;;;;;5063030;28;20201;-50
2021/05/15 11:17:23;;;;;;;1.33;0.93;;;17.90;67.10;;;;;;5066432;28;20207;-50
2021/05/15 11:19:49;;;;;;;2.15;1.13;;;17.70;66.10;;;;;;5064383;28;20179;-50
2021/05/15 11:22:15;;;;;;;1.97;1.10;;;17.80;65.90;;;;;;5053599;28;20181;-51
2021/05/15 11:24:56;;;;;;;1.67;1.42;;;18.00;65.00;;;;;;5081164;28;20247;-50
2021/05/15 11:27:23;;;;;;;1.92;1.35;;;17.90;64.20;;;;;;5065535;28;20177;-50
2021/05/15 11:30:12;;;;;;;3.38;1.10;;;17.80;65.00;;;;;;5067887;28;20227;-51
2021/05/15 11:32:38;;;;;;;1.33;0.98;;;17.80;65.40;;;;;;5067754;28;20594;-50
2021/05/15 11:35:06;;;;;;;1.48;1.25;;;17.90;64.50;;;;;;5062784;28;20209;-50
2021/05/15 11:37:32;;;;;;;3.15;1.35;;;17.90;64.70;;;;;;5068131;28;20623;-51
2021/05/15 11:39:57;;;;;;;1.40;1.30;;;18.10;64.90;;;;;;5066948;28;20180;-51
2021/05/15 11:42:28;;;;;;;3.47;1.37;;;18.00;64.80;;;;;;5050828;28;20203;-51
2021/05/15 11:44:54;;;;;;;3.00;1.80;;;18.40;67.70;;;;;;5068195;28;20467;-49
2021/05/15 11:47:24;;;;;;;1.73;1.10;;;18.60;64.80;;;;;;5067041;28;20630;-50
2021/05/15 11:49:59;;;;;;;3.97;1.48;;;19.00;63.50;;;;;;5067099;28;20188;-50
2021/05/15 11:52:33;;;;;;;1.67;1.15;;;19.40;62.90;;;;;;5067821;28;20188;-50
2021/05/15 11:55:00;;;;;;;1.27;1.10;;;19.50;62.10;;;;;;5065449;28;20211;-51
2021/05/15 11:57:27;;;;;;;1.52;1.00;;;19.60;60.10;;;;;;5065764;28;20196;-50
2021/05/15 11:59:53;;;;;;;1.80;1.00;;;19.50;61.30;;;;;;5061763;28;20177;-50
2021/05/15 12:02:20;;;;;;;1.70;1.00;;;19.50;61.20;;;;;;5065881;28;20192;-50
2021/05/15 12:04:45;;;;;;;1.42;0.95;;;19.50;60.00;;;;;;5067124;28;20291;-50
2021/05/15 12:07:14;;;;;;;1.27;1.17;;;19.50;60.80;;;;;;5066807;28;20272;-50
2021/05/15 12:09:40;;;;;;;1.05;0.95;;;19.30;61.90;;;;;;5063151;28;20191;-50
2021/05/15 12:12:09;;;;;;;1.20;1.03;;;19.50;62.60;;;;;;5074118;28;20192;-49
2021/05/15 12:14:42;;;;;;;1.17;0.90;;;19.70;61.20;;;;;;5065478;28;20208;-49
2021/05/15 12:17:14;;;;;;;1.42;1.33;;;19.70;60.50;;;;;;5065859;28;21013;-48
2021/05/15 12:19:40;;;;;;;2.95;1.00;;;19.40;61.10;;;;;;5062830;28;20669;-49
2021/05/15 12:22:08;;;;;;;2.40;1.10;;;19.30;61.60;;;;;;5062850;28;20185;-49
2021/05/15 12:24:44;;;;;;;1.45;1.00;;;19.60;63.50;;;;;;5069394;28;20201;-49
2021/05/15 12:27:15;;;;;;;1.85;1.25;;;19.70;60.30;;;;;;5058065;28;20195;-49
2021/05/15 12:29:44;;;;;;;1.70;1.30;;;20.00;60.10;;;;;;5068017;28;20732;-49
2021/05/15 12:32:10;;;;;;;3.38;1.15;;;19.90;59.20;;;;;;5067172;28;20357;-49
2021/05/15 12:34:40;;;;;;;1.23;0.90;;;20.00;59.30;;;;;;5064469;28;20287;-49
2021/05/15 12:37:18;;;;;;;1.00;0.90;;;20.00;58.20;;;;;;5065304;28;20181;-49
2021/05/15 12:39:44;;;;;;;2.03;1.00;;;20.10;58.50;;;;;;5066499;28;20222;-51
2021/05/15 12:42:14;;;;;;;4.33;1.70;;;20.20;59.80;;;;;;5059907;28;20185;-49
2021/05/15 12:44:42;;;;;;;2.88;1.23;;;20.20;59.50;;;;;;5066556;28;20279;-49
2021/05/15 12:47:08;;;;;;;1.48;1.10;;;20.10;59.10;;;;;;5062937;28;20247;-49
2021/05/15 12:49:40;;;;;;;1.93;1.10;;;20.20;58.90;;;;;;5066170;28;20628;-50